createdAt,value
2018-04-22T16:38:50.462Z,56.80
2018-04-22T16:41:18.141Z,58.30
2018-04-22T16:43:45.750Z,58.50
2018-04-22T16:46:13.416Z,57.80
2018-04-22T16:48:41.061Z,60.20
2018-04-22T16:51:08.724Z,61.30
2018-04-22T16:53:36.338Z,61.30
2018-04-22T16:56:03.959Z,58.60
2018-04-22T16:58:31.700Z,59.00
2018-04-22T17:00:59.427Z,58.10
2018-04-22T17:03:27.104Z,61.00
2018-04-22T17:05:58.871Z,58.90
2018-04-22T17:08:26.502Z,59.10
2018-04-22T17:10:54.198Z,56.80
2018-04-22T17:13:23.651Z,57.90
2018-04-22T17:15:51.357Z,57.70
2018-04-22T17:18:19.003Z,59.40
2018-04-22T17:20:46.644Z,60.00
2018-04-22T17:23:14.249Z,67.40
2018-04-22T17:25:42.181Z,61.20
2018-04-22T17:28:09.850Z,67.90
2018-04-22T17:30:37.495Z,68.00
2018-04-22T17:33:06.942Z,66.80
2018-04-22T17:35:34.721Z,66.60
2018-04-22T17:38:04.867Z,66.00
2018-04-22T17:40:32.595Z,66.10
2018-04-22T17:43:00.256Z,69.40
2018-04-22T17:45:27.920Z,71.70
2018-04-22T17:47:55.609Z,70.30
2018-04-22T17:50:24.095Z,74.40
2018-04-22T17:52:51.801Z,76.80
2018-04-22T17:55:19.665Z,78.20
2018-04-22T17:57:47.359Z,82.20
2018-04-22T18:00:15.063Z,83.70
2018-04-22T18:02:42.704Z,88.20
2018-04-22T18:05:10.452Z,90.00
2018-04-22T18:07:38.968Z,91.20
2018-04-22T18:10:07.390Z,91.50
2018-04-22T18:12:36.019Z,94.00
2018-04-22T18:15:05.050Z,94.80
2018-04-22T18:17:33.212Z,94.80
2018-04-22T18:20:00.942Z,97.70
2018-04-22T18:22:28.574Z,97.90
2018-04-22T18:24:56.324Z,98.70
2018-04-22T18:27:24.697Z,99.90
2018-04-22T18:29:52.371Z,99.60
2018-04-22T18:32:20.107Z,99.90
2018-04-22T18:34:48.554Z,99.90
2018-04-22T18:37:16.994Z,99.90
2018-04-22T18:39:44.668Z,99.90
2018-04-22T18:42:12.311Z,99.90
2018-04-22T18:44:40.769Z,99.90
2018-04-22T18:47:08.976Z,99.90
2018-04-22T18:49:36.635Z,99.90
2018-04-22T18:52:04.270Z,99.90
2018-04-22T18:54:32.253Z,99.90
2018-04-22T18:57:00.584Z,99.90
2018-04-22T18:59:29.915Z,99.90
2018-04-22T19:01:58.052Z,99.90
2018-04-22T19:04:25.697Z,99.90
2018-04-22T19:06:53.375Z,99.90
2018-04-22T19:09:20.989Z,99.90
2018-04-22T19:11:49.456Z,99.90
2018-04-22T19:14:17.869Z,99.90
2018-04-22T19:16:45.736Z,99.90
2018-04-22T19:19:13.429Z,99.90
2018-04-22T19:21:41.111Z,99.90
2018-04-22T19:24:08.810Z,99.90
2018-04-22T19:26:37.212Z,99.90
2018-04-22T19:29:04.914Z,99.90
2018-04-22T19:31:32.610Z,99.90
2018-04-22T19:34:01.091Z,99.90
2018-04-22T19:36:28.789Z,99.90
2018-04-22T19:38:57.209Z,99.90
2018-04-22T19:41:25.309Z,99.90
2018-04-22T19:43:52.993Z,99.90
2018-04-22T19:46:20.695Z,99.90
2018-04-22T19:48:49.088Z,99.90
2018-04-22T19:51:17.489Z,99.90
2018-04-22T19:53:45.145Z,99.90
2018-04-22T19:56:13.748Z,99.90
2018-04-22T19:58:41.477Z,99.90
2018-04-22T20:01:09.952Z,99.90
2018-04-22T20:03:37.583Z,99.90
2018-04-22T20:06:05.210Z,99.90
2018-04-22T20:08:33.205Z,99.90
2018-04-22T20:11:01.955Z,99.90
2018-04-22T20:13:29.648Z,99.90
2018-04-22T20:15:57.296Z,99.90
2018-04-22T20:18:26.043Z,99.90
2018-04-22T20:20:53.644Z,99.90
2018-04-22T20:23:22.085Z,99.90
2018-04-22T20:25:49.742Z,99.90
2018-04-22T20:28:17.690Z,99.90
2018-04-22T20:30:46.117Z,99.90
2018-04-22T20:33:14.048Z,99.90
2018-04-22T20:35:42.781Z,99.90
2018-04-22T20:38:10.416Z,99.90
2018-04-22T20:40:38.070Z,99.90
2018-04-22T20:43:06.572Z,99.90
2018-04-22T20:45:35.047Z,99.90
2018-04-22T20:48:02.737Z,99.90
2018-04-22T20:50:30.354Z,99.90
2018-04-22T20:52:57.996Z,99.90
2018-04-22T20:55:25.651Z,99.90
2018-04-22T20:57:53.275Z,99.90
2018-04-22T21:00:22.510Z,99.90
2018-04-22T21:02:50.162Z,99.90
2018-04-22T21:05:17.816Z,99.90
2018-04-22T21:07:47.161Z,99.90
2018-04-22T21:10:14.820Z,99.90
2018-04-22T21:12:42.490Z,99.90
2018-04-22T21:15:10.489Z,99.90
2018-04-22T21:17:38.111Z,99.90
2018-04-22T21:20:05.755Z,99.90
2018-04-22T21:22:34.194Z,99.90
2018-04-22T21:25:01.839Z,99.90
2018-04-22T21:27:29.552Z,99.90
2018-04-22T21:29:57.146Z,99.90
2018-04-22T21:32:24.806Z,99.90
2018-04-22T21:34:52.459Z,99.90
2018-04-22T21:37:20.166Z,99.90
2018-04-22T21:39:48.374Z,99.90
2018-04-22T21:42:17.050Z,99.90
2018-04-22T21:44:44.676Z,99.90
2018-04-22T21:47:13.091Z,99.90
2018-04-22T21:49:41.097Z,99.90
2018-04-22T21:52:08.761Z,99.90
2018-04-22T21:54:37.248Z,99.90
2018-04-22T21:57:04.899Z,99.90
2018-04-22T21:59:32.505Z,99.90
2018-04-22T22:02:00.437Z,99.90
2018-04-22T22:04:28.094Z,99.90
2018-04-22T22:06:55.849Z,99.90
2018-04-22T22:09:23.518Z,99.90
2018-04-22T22:11:51.194Z,99.90
2018-04-22T22:14:18.839Z,99.90
2018-04-22T22:16:46.483Z,99.90
2018-04-22T22:19:14.883Z,99.90
2018-04-22T22:21:43.258Z,99.90
2018-04-22T22:24:10.930Z,99.90
2018-04-22T22:26:39.674Z,99.90
2018-04-22T22:29:07.982Z,99.90
2018-04-22T22:31:36.237Z,99.90
2018-04-22T22:34:05.511Z,99.90
2018-04-22T22:36:33.131Z,99.90
2018-04-22T22:39:01.090Z,99.90
2018-04-22T22:41:28.724Z,99.90
2018-04-22T22:43:56.421Z,99.90
2018-04-22T22:46:24.157Z,99.90
2018-04-22T22:48:52.862Z,99.90
2018-04-22T22:51:21.343Z,99.90
2018-04-22T22:53:49.071Z,99.90
2018-04-22T22:56:17.482Z,99.90
2018-04-22T22:58:45.144Z,99.90
2018-04-22T23:01:12.806Z,99.90
2018-04-22T23:03:41.218Z,99.90
2018-04-22T23:06:08.846Z,99.90
2018-04-22T23:08:37.295Z,99.90
2018-04-22T23:11:04.910Z,99.90
2018-04-22T23:13:33.333Z,99.90
2018-04-22T23:16:00.951Z,99.90
2018-04-22T23:18:29.382Z,99.90
2018-04-22T23:20:57.605Z,99.90
2018-04-22T23:23:25.340Z,99.90
2018-04-22T23:25:54.012Z,99.90
2018-04-22T23:28:21.629Z,99.90
2018-04-22T23:30:50.925Z,99.90
2018-04-22T23:33:19.386Z,99.90
2018-04-22T23:35:47.015Z,99.90
2018-04-22T23:38:15.145Z,99.90
2018-04-22T23:40:43.559Z,99.90
2018-04-22T23:43:12.837Z,99.90
2018-04-22T23:45:41.858Z,99.90
2018-04-22T23:48:10.261Z,99.90
2018-04-22T23:50:37.894Z,99.90
2018-04-22T23:53:06.304Z,99.90
2018-04-22T23:55:34.684Z,99.90
2018-04-22T23:58:02.646Z,99.90
